Pat — WDG8790 — position and weather

sailwx.info

Track history (hours):
 
Tides and Currents Weather Stations Pressure Air Temp Water Temp Dewpoint Dewpoint Depression Visibility Wind Speed Wind Dir Waves Ship Positions

Pat

Owner: HARBOR DOCKING & TOWING CO. LLC, Houston, TX. More information available from US FCC via Universal Licensing System and Coast Guard Vessel Documentation Center.

Last reported at 2018-Jun-16 18:04 UTC. Time now 2018-Jun-21 10:02 UTC.
Position N 29°50' W 093°21'.

Length 32 m; draft 4 m.

Type: Towing. MMSI: 367581090.

Date/timePositionNaut miles runAvg speedWind from/ knotsBaromVisibWave heightAir tempDewpointWater temp
2018-Jun-16 18:04N 29°50' W 093°21'0 8.3
2018-Jun-16 18:00N 29°50' W 093°21'4 8.3
2018-Jun-16 17:30N 29°55' W 093°20'4 8.4
2018-Jun-16 17:00N 29°59' W 093°20'4 8.4
2018-Jun-16 16:30N 30°03' W 093°20'4 8.4
2018-Jun-16 16:00N 30°07' W 093°20'4 7.3
2018-Jun-16 15:30N 30°11' W 093°19'0 0.3
2018-Jun-16 15:00N 30°11' W 093°19'0 0.0
2018-Jun-16 14:30N 30°11' W 093°19'0 0.0
2018-Jun-16 14:00N 30°11' W 093°19'1 2.5
2018-Jun-16 13:30N 30°09' W 093°20'2 4.4
2018-Jun-16 13:00N 30°07' W 093°20'3 5.3
2018-Jun-16 12:30N 30°05' W 093°20'1 1.1
2018-Jun-16 12:00N 30°05' W 093°20'4 8.1
2018-Jun-16 11:30N 30°09' W 093°20'2 3.5
2018-Jun-16 11:00N 30°11' W 093°19'0 0.0
2018-Jun-16 10:30N 30°11' W 093°19'0 0.0
2018-Jun-16 10:00N 30°11' W 093°19'0 0.0
2018-Jun-16 09:30N 30°11' W 093°19'0 0.0
2018-Jun-16 09:00N 30°11' W 093°19'0 0.0
2018-Jun-16 08:30N 30°11' W 093°19'0 0.0
2018-Jun-16 08:00N 30°11' W 093°19'0 0.0
2018-Jun-16 07:30N 30°11' W 093°19'0 0.0
2018-Jun-16 07:00N 30°11' W 093°19'0 0.0
2018-Jun-16 06:30N 30°11' W 093°19'0 0.0
2018-Jun-16 06:00N 30°11' W 093°19'0 0.0
2018-Jun-16 05:28N 30°11' W 093°19'0 0.0
2018-Jun-16 04:59N 30°11' W 093°19'0 0.0
2018-Jun-16 04:30N 30°11' W 093°19'0 0.0
2018-Jun-16 04:00N 30°11' W 093°19'0 0.0
2018-Jun-16 03:30N 30°11' W 093°19'0 0.4
2018-Jun-16 03:00N 30°11' W 093°19'0 0.1
2018-Jun-16 02:30N 30°11' W 093°19'1 1.3
2018-Jun-16 02:00N 30°11' W 093°19'0 1.0
2018-Jun-16 01:30N 30°11' W 093°19'0 0.1
2018-Jun-16 01:00N 30°11' W 093°19'0 0.0
2018-Jun-16 00:30N 30°11' W 093°19'0 0.0
2018-Jun-16 00:00N 30°11' W 093°19'1 1.8
2018-Jun-15 23:30N 30°10' W 093°19'2 3.5
2018-Jun-15 23:00N 30°11' W 093°18'1 2.0
2018-Jun-15 22:30N 30°11' W 093°19'0 0.0
2018-Jun-15 22:00N 30°11' W 093°19'0 0.0
2018-Jun-15 21:30N 30°11' W 093°19'0 0.0
2018-Jun-15 21:00N 30°11' W 093°19'0 0.0
2018-Jun-15 20:30N 30°11' W 093°19'0 0.0
2018-Jun-15 20:00N 30°11' W 093°19'0 0.0
2018-Jun-15 19:29N 30°11' W 093°19'0 0.0
2018-Jun-15 19:00N 30°11' W 093°19'0 0.0
2018-Jun-15 18:30N 30°11' W 093°19'0 0.0
2018-Jun-15 18:00N 30°11' W 093°19'0 0.0
2018-Jun-15 17:30N 30°11' W 093°19'0 0.0
2018-Jun-15 17:00N 30°11' W 093°19'0 0.0
2018-Jun-15 16:30N 30°11' W 093°19'0 0.0
2018-Jun-15 16:00N 30°11' W 093°19'0 0.0
2018-Jun-15 15:30N 30°11' W 093°19'0 0.0
2018-Jun-15 15:00N 30°11' W 093°19'0 0.0
2018-Jun-15 14:30N 30°11' W 093°19'0 0.0
2018-Jun-15 14:00N 30°11' W 093°19'0 0.0
2018-Jun-15 13:30N 30°11' W 093°19'0 0.0
2018-Jun-15 13:00N 30°11' W 093°19'0 0.0
2018-Jun-15 12:30N 30°11' W 093°19'0 0.0
2018-Jun-15 12:00N 30°11' W 093°19'0 0.0
2018-Jun-15 11:30N 30°11' W 093°19'0 0.0
2018-Jun-15 11:00N 30°11' W 093°19'0 0.0
2018-Jun-15 10:30N 30°11' W 093°19'0 0.0
2018-Jun-15 10:00N 30°11' W 093°19'0 0.0
2018-Jun-15 09:30N 30°11' W 093°19'0 0.0
2018-Jun-15 09:00N 30°11' W 093°19'0 0.0
2018-Jun-15 08:30N 30°11' W 093°19'0 0.0
2018-Jun-15 08:00N 30°11' W 093°19'0 0.0
2018-Jun-15 07:30N 30°11' W 093°19'0 0.0
2018-Jun-15 07:00N 30°11' W 093°19'0 0.0
2018-Jun-15 06:29N 30°11' W 093°19'0 0.0
2018-Jun-15 06:00N 30°11' W 093°19'0 0.0
2018-Jun-15 05:30N 30°11' W 093°19'0 0.0
2018-Jun-15 05:00N 30°11' W 093°19'0 0.0
2018-Jun-15 04:30N 30°11' W 093°19'0 0.0
2018-Jun-15 04:00N 30°11' W 093°19'0 0.0
2018-Jun-15 03:30N 30°11' W 093°19'0 0.0
2018-Jun-15 03:00N 30°11' W 093°19'0 0.0
2018-Jun-15 02:30N 30°11' W 093°19'0 0.0
2018-Jun-15 01:58N 30°11' W 093°19'0 0.0
2018-Jun-15 01:30N 30°11' W 093°19'0 0.0
2018-Jun-15 01:00N 30°11' W 093°19'0 0.0
2018-Jun-15 00:30N 30°11' W 093°19'0 0.0
2018-Jun-15 00:00N 30°11' W 093°19'0 0.0
2018-Jun-14 23:30N 30°11' W 093°19'0 0.0
2018-Jun-14 23:00N 30°11' W 093°19'0 0.0
2018-Jun-14 22:30N 30°11' W 093°19'0 0.0
2018-Jun-14 21:58N 30°11' W 093°19'0 0.0
2018-Jun-14 21:30N 30°11' W 093°19'0 0.0
2018-Jun-14 21:00N 30°11' W 093°19'0 0.0
2018-Jun-14 20:30N 30°11' W 093°19'0 0.0
2018-Jun-14 20:00N 30°11' W 093°19'0 0.0
2018-Jun-14 19:30N 30°11' W 093°19'0 0.0
2018-Jun-14 19:00N 30°11' W 093°19'0 0.0
2018-Jun-14 18:30N 30°11' W 093°19'1 2.5
2018-Jun-14 18:00N 30°10' W 093°20'0 0.0
2018-Jun-14 17:30N 30°10' W 093°20'1 1.1
2018-Jun-14 17:00N 30°09' W 093°20'2 4.9
2018-Jun-14 16:30N 30°07' W 093°20'3 5.6
2018-Jun-14 16:00N 30°04' W 093°20'1 2.1
2018-Jun-14 15:30N 30°05' W 093°20'4 8.6
2018-Jun-14 15:00N 30°09' W 093°20'2 3.0
2018-Jun-14 14:29N 30°11' W 093°19'0 0.0
2018-Jun-14 14:00N 30°11' W 093°19'0 0.0
2018-Jun-14 13:30N 30°11' W 093°19'0 0.0
2018-Jun-14 13:00N 30°11' W 093°19'0 0.0
2018-Jun-14 12:30N 30°11' W 093°19'0 0.6
2018-Jun-14 12:00N 30°10' W 093°19'0 0.0
2018-Jun-14 11:30N 30°10' W 093°19'1 1.4
2018-Jun-14 11:00N 30°11' W 093°18'2 3.2
2018-Jun-14 10:30N 30°10' W 093°19'1 2.4
2018-Jun-14 10:00N 30°11' W 093°19'0 0.0
2018-Jun-14 09:30N 30°11' W 093°19'0 0.0
2018-Jun-14 09:00N 30°11' W 093°19'0 0.0
2018-Jun-14 08:30N 30°11' W 093°19'0 0.0
2018-Jun-14 08:00N 30°11' W 093°19'0 0.0
2018-Jun-14 07:29N 30°11' W 093°19'0 0.0
2018-Jun-14 07:00N 30°11' W 093°19'0 0.0
2018-Jun-14 06:30N 30°11' W 093°19'0 0.0
2018-Jun-14 06:00N 30°11' W 093°19'0 0.0
2018-Jun-14 05:30N 30°11' W 093°19'0 0.0
2018-Jun-14 05:00N 30°11' W 093°19'0 0.0
2018-Jun-14 04:30N 30°11' W 093°19'0 0.0
2018-Jun-14 04:00N 30°11' W 093°19'3 6.2
2018-Jun-14 03:30N 30°08' W 093°20'0 0.7
2018-Jun-14 03:00N 30°07' W 093°20'2 4.7
2018-Jun-14 02:30N 30°10' W 093°19'2 4.0
2018-Jun-14 02:00N 30°11' W 093°18'0 0.5
2018-Jun-14 01:30N 30°12' W 093°18'2 3.9
2018-Jun-14 01:00N 30°10' W 093°19'1 1.0
2018-Jun-14 00:30N 30°11' W 093°19'2 4.8
2018-Jun-14 00:00N 30°12' W 093°17'1 2.4
2018-Jun-13 23:30N 30°13' W 093°16'1 2.1
2018-Jun-13 23:00N 30°14' W 093°15'1 1.0
2018-Jun-13 22:30N 30°13' W 093°16'4 7.6
2018-Jun-13 22:00N 30°11' W 093°19'0 0.3
2018-Jun-13 21:30N 30°11' W 093°19'0 0.0
2018-Jun-13 21:00N 30°11' W 093°19'0 0.0
2018-Jun-13 20:30N 30°11' W 093°19'0 0.0
2018-Jun-13 20:00N 30°11' W 093°19'0 0.0
2018-Jun-13 19:30N 30°11' W 093°19'0 0.0
2018-Jun-13 19:00N 30°11' W 093°19'0 0.0
2018-Jun-13 18:30N 30°11' W 093°19'0 0.0
2018-Jun-13 18:00N 30°11' W 093°19'0 0.0
2018-Jun-13 17:29N 30°11' W 093°19'0 0.0
2018-Jun-13 16:59N 30°11' W 093°19'0 0.0
2018-Jun-13 16:30N 30°11' W 093°19'0 0.0
2018-Jun-13 16:00N 30°11' W 093°19'0 0.0
2018-Jun-13 15:29N 30°11' W 093°19'0 0.0
2018-Jun-13 15:00N 30°11' W 093°19'0 0.0
2018-Jun-13 14:30N 30°11' W 093°19'0 0.0
2018-Jun-13 14:00N 30°11' W 093°19'0 0.0
2018-Jun-13 13:30N 30°11' W 093°19'0 0.0
2018-Jun-13 13:00N 30°11' W 093°19'0 0.0
2018-Jun-13 12:30N 30°11' W 093°19'0 0.0
2018-Jun-13 12:00N 30°11' W 093°19'0 0.0
2018-Jun-13 11:30N 30°11' W 093°19'0 0.0
2018-Jun-13 11:00N 30°11' W 093°19'0 0.0
2018-Jun-13 10:30N 30°11' W 093°19'0 0.0
2018-Jun-13 10:00N 30°11' W 093°19'0 0.0
2018-Jun-13 09:30N 30°11' W 093°19'0 0.0
2018-Jun-13 09:00N 30°11' W 093°19'0 0.0
2018-Jun-13 08:30N 30°11' W 093°19'0 0.0
2018-Jun-13 08:00N 30°11' W 093°19'0 0.0
2018-Jun-13 07:30N 30°11' W 093°19'0 0.0
2018-Jun-13 07:00N 30°11' W 093°19'0 0.0
2018-Jun-13 06:30N 30°11' W 093°19'0 0.0
2018-Jun-13 06:00N 30°11' W 093°19'0 0.0
2018-Jun-13 05:30N 30°11' W 093°19'0 0.0
2018-Jun-13 05:00N 30°11' W 093°19'0 0.0
2018-Jun-13 04:29N 30°11' W 093°19'0 0.0
2018-Jun-13 03:59N 30°11' W 093°19'0 0.0
2018-Jun-13 03:30N 30°11' W 093°19'0 0.0
2018-Jun-13 03:00N 30°11' W 093°19'0 0.0
2018-Jun-13 02:30N 30°11' W 093°19'0 0.0
2018-Jun-13 02:00N 30°11' W 093°19'0 0.0
2018-Jun-13 01:30N 30°11' W 093°19'0 0.0
2018-Jun-13 00:59N 30°11' W 093°19'0 0.0
2018-Jun-13 00:30N 30°11' W 093°19'0 0.0
2018-Jun-13 00:00N 30°11' W 093°19'3 0.3
2018-Jun-12 12:35N 30°08' W 093°20'0 4.2
2018-Jun-12 12:30N 30°08' W 093°20'2 4.6
2018-Jun-12 12:01N 30°10' W 093°19'0 0.7
2018-Jun-12 11:31N 30°11' W 093°19'0 0.0
2018-Jun-12 11:00N 30°11' W 093°19'0 0.0
2018-Jun-12 10:30N 30°11' W 093°19'0 0.0
2018-Jun-12 10:00N 30°11' W 093°19'0 0.0
2018-Jun-12 09:30N 30°11' W 093°19'2 4.0
2018-Jun-12 09:01N 30°09' W 093°20'0 0.7
2018-Jun-12 08:31N 30°09' W 093°20'0 0.4
2018-Jun-12 08:01N 30°09' W 093°20'2 3.3
2018-Jun-12 07:31N 30°11' W 093°19'3 6.5
2018-Jun-12 06:59N 30°13' W 093°15'0 0.0
2018-Jun-12 06:30N 30°13' W 093°15'0 0.0
2018-Jun-12 06:01N 30°13' W 093°15'0 0.0
2018-Jun-12 05:31N 30°13' W 093°15'0 0.0
2018-Jun-12 05:00N 30°13' W 093°15'0 0.0
2018-Jun-12 04:29N 30°13' W 093°15'0 0.0
2018-Jun-12 04:00N 30°13' W 093°15'0 0.0
2018-Jun-12 03:30N 30°13' W 093°15'0 0.0
2018-Jun-12 03:01N 30°13' W 093°15'0 0.0
2018-Jun-12 02:30N 30°13' W 093°15'0 0.0
2018-Jun-12 02:00N 30°13' W 093°15'0 0.0
2018-Jun-12 01:31N 30°13' W 093°15'0 0.0
2018-Jun-12 01:00N 30°13' W 093°15'0 0.0
2018-Jun-12 00:31N 30°13' W 093°15'0 0.0
2018-Jun-12 00:00N 30°13' W 093°15'0 0.0
2018-Jun-11 23:30N 30°13' W 093°15'0 0.0
2018-Jun-11 23:01N 30°13' W 093°15'0 0.0
2018-Jun-11 22:30N 30°13' W 093°15'2 3.8
2018-Jun-11 22:00N 30°12' W 093°17'3 5.8
2018-Jun-11 21:30N 30°10' W 093°20'1 2.6
2018-Jun-11 21:01N 30°11' W 093°19'0 0.0
2018-Jun-11 20:31N 30°11' W 093°19'0 0.0
2018-Jun-11 20:00N 30°11' W 093°19'0 0.0
2018-Jun-11 19:31N 30°11' W 093°19'0 0.0
2018-Jun-11 19:01N 30°11' W 093°19'0 0.0
2018-Jun-11 18:31N 30°11' W 093°19'0 0.0
2018-Jun-11 18:00N 30°11' W 093°19'0 0.0
2018-Jun-11 17:29N 30°11' W 093°19'0 0.0
2018-Jun-11 17:00N 30°11' W 093°19'0 0.0
2018-Jun-11 16:30N 30°11' W 093°19'0 0.0
2018-Jun-11 16:01N 30°11' W 093°19'0 0.0
2018-Jun-11 15:31N 30°11' W 093°19'0 0.0
2018-Jun-11 15:00N 30°11' W 093°19'0 0.0
2018-Jun-11 14:30N 30°11' W 093°19'0 0.0
2018-Jun-11 14:00N 30°11' W 093°19'1 1.5
2018-Jun-11 13:30N 30°10' W 093°19'1 2.2
2018-Jun-11 13:01N 30°11' W 093°19'0 0.9
2018-Jun-11 12:30N 30°11' W 093°19'0 0.0
2018-Jun-11 12:01N 30°11' W 093°19'0 0.0
2018-Jun-11 11:30N 30°11' W 093°19'0 0.0
2018-Jun-11 11:00N 30°11' W 093°19'0 0.0
2018-Jun-11 10:31N 30°11' W 093°19'0 0.0
2018-Jun-11 10:01N 30°11' W 093°19'1 3.0
2018-Jun-11 09:30N 30°09' W 093°20'0 0.0
2018-Jun-11 09:01N 30°09' W 093°20'1 1.0
2018-Jun-11 08:31N 30°09' W 093°20'3 5.4
2018-Jun-11 08:00N 30°06' W 093°20'3 5.7
2018-Jun-11 07:31N 30°03' W 093°20'2 4.9
2018-Jun-11 07:01N 30°06' W 093°20'4 7.2
2018-Jun-11 06:31N 30°09' W 093°20'1 2.9
2018-Jun-11 06:00N 30°11' W 093°19'0 0.0
2018-Jun-11 05:31N 30°11' W 093°19'0 0.0
2018-Jun-11 05:00N 30°11' W 093°19'0 0.0
2018-Jun-11 04:31N 30°11' W 093°19'0 0.0
2018-Jun-11 04:01N 30°11' W 093°19'0 0.0
2018-Jun-11 03:31N 30°11' W 093°19'0 0.0
2018-Jun-11 03:01N 30°11' W 093°19'0 0.0
2018-Jun-11 02:31N 30°11' W 093°19'0 0.0
2018-Jun-11 02:01N 30°11' W 093°19'0 0.0
2018-Jun-11 01:30N 30°11' W 093°19'0 0.0
2018-Jun-11 01:00N 30°11' W 093°19'0 0.0
2018-Jun-11 00:30N 30°11' W 093°19'0 0.0
2018-Jun-11 00:01N 30°11' W 093°19'0 0.0
2018-Jun-10 23:31N 30°11' W 093°19'0 0.0
2018-Jun-10 23:01N 30°11' W 093°19'0 0.0
2018-Jun-10 22:30N 30°11' W 093°19'0 0.0
2018-Jun-10 21:57N 30°11' W 093°19'0 0.0
2018-Jun-10 21:31N 30°11' W 093°19'0 0.0
2018-Jun-10 21:00N 30°11' W 093°19'0 0.0
2018-Jun-10 20:31N 30°11' W 093°19'0 0.0
2018-Jun-10 20:00N 30°11' W 093°19'0 0.0
2018-Jun-10 19:30N 30°11' W 093°19'0 0.0
2018-Jun-10 19:01N 30°11' W 093°19'0 0.0
2018-Jun-10 18:30N 30°11' W 093°19'0 0.0
2018-Jun-10 18:00N 30°11' W 093°19'0 0.0
2018-Jun-10 17:31N 30°11' W 093°19'0 0.0
2018-Jun-10 17:01N 30°11' W 093°19'0 0.0
2018-Jun-10 16:31N 30°11' W 093°19'0 0.0
2018-Jun-10 16:01N 30°11' W 093°19'0 0.0
2018-Jun-10 15:31N 30°11' W 093°19'0 0.0
2018-Jun-10 15:01N 30°11' W 093°19'0 0.0
2018-Jun-10 14:01N 30°11' W 093°19'0 0.0
2018-Jun-10 13:29N 30°11' W 093°19'0 0.0
2018-Jun-10 13:01N 30°11' W 093°19'1 2.3
2018-Jun-10 12:31N 30°10' W 093°19'1 2.6
2018-Jun-10 11:59N 30°11' W 093°18'1 1.5
2018-Jun-10 11:30N 30°10' W 093°19'5 9.0
2018-Jun-10 11:00N 30°06' W 093°20'2 4.4
2018-Jun-10 10:31N 30°06' W 093°17'0 0.0
2018-Jun-10 10:01N 30°06' W 093°17'0 0.0
2018-Jun-10 09:31N 30°06' W 093°17'0 0.0
2018-Jun-10 09:00N 30°06' W 093°17'0 0.0
2018-Jun-10 08:31N 30°06' W 093°17'0 0.0
2018-Jun-10 08:00N 30°06' W 093°17'0 0.0
2018-Jun-10 07:29N 30°06' W 093°17'0 0.0
2018-Jun-10 07:01N 30°06' W 093°17'0 0.0
2018-Jun-10 06:30N 30°06' W 093°17'0 0.0
2018-Jun-10 06:01N 30°06' W 093°17'0 0.0
2018-Jun-10 05:30N 30°06' W 093°17'0 0.0
2018-Jun-10 05:01N 30°06' W 093°17'0 0.0
2018-Jun-10 04:30N 30°06' W 093°17'0 0.0
2018-Jun-10 04:01N 30°06' W 093°17'0 0.0
2018-Jun-10 03:31N 30°06' W 093°17'0 0.0
2018-Jun-10 03:01N 30°06' W 093°17'0 0.0
2018-Jun-10 02:31N 30°06' W 093°17'2 3.5
2018-Jun-10 02:01N 30°06' W 093°19'1 2.9
2018-Jun-10 01:30N 30°07' W 093°18'0 0.4
2018-Jun-10 01:00N 30°07' W 093°18'2 4.3
2018-Jun-10 00:30N 30°08' W 093°20'3 6.0
2018-Jun-10 00:01N 30°11' W 093°19'0 0.0
2018-Jun-09 23:31N 30°11' W 093°19'0 0.0
2018-Jun-09 23:00N 30°11' W 093°19'0 0.0
2018-Jun-09 22:30N 30°11' W 093°19'2 4.4
2018-Jun-09 22:00N 30°09' W 093°20'1 1.3
2018-Jun-09 21:30N 30°09' W 093°20'2 3.1
2018-Jun-09 21:00N 30°11' W 093°19'0 0.0
2018-Jun-09 20:30N 30°11' W 093°19'0 0.0
2018-Jun-09 20:00N 30°11' W 093°19'0 0.0
2018-Jun-09 19:30N 30°11' W 093°19'0 0.0
2018-Jun-09 19:00N 30°11' W 093°19'0 0.0
2018-Jun-09 18:31N 30°11' W 093°19'0 0.0
2018-Jun-09 18:00N 30°11' W 093°19'0 0.0
2018-Jun-09 17:31N 30°11' W 093°19'0 0.0
2018-Jun-09 16:59N 30°11' W 093°19'0 0.0
2018-Jun-09 16:30N 30°11' W 093°19'0 0.0
2018-Jun-09 16:01N 30°11' W 093°19'0 0.0
2018-Jun-09 15:01N 30°11' W 093°19'0 0.0
2018-Jun-09 14:30N 30°11' W 093°19'0 0.0
2018-Jun-09 14:00N 30°11' W 093°19'0 0.0
2018-Jun-09 13:31N 30°11' W 093°19'0 0.0
2018-Jun-09 13:00N 30°11' W 093°19'0 0.0
2018-Jun-09 12:30N 30°11' W 093°19'0 0.0
2018-Jun-09 12:01N 30°11' W 093°19'0 0.0
2018-Jun-09 11:30N 30°11' W 093°19'0 0.0
2018-Jun-09 11:01N 30°11' W 093°19'0 0.7
2018-Jun-09 10:30N 30°11' W 093°19'0 0.0
2018-Jun-09 10:00N 30°11' W 093°19'1 1.8
2018-Jun-09 09:31N 30°10' W 093°19'1 1.2
2018-Jun-09 09:00N 30°11' W 093°19'0 0.0
2018-Jun-09 08:28N 30°11' W 093°19'0 0.0
2018-Jun-09 08:01N 30°11' W 093°19'0 0.0
2018-Jun-09 07:31N 30°11' W 093°19'0 0.0
2018-Jun-09 07:01N 30°11' W 093°19'0 0.0
2018-Jun-09 06:30N 30°11' W 093°19'0 0.0
2018-Jun-09 06:00N 30°11' W 093°19'0 0.0
2018-Jun-09 05:31N 30°11' W 093°19'0 0.0
2018-Jun-09 05:00N 30°11' W 093°19'0 0.0
2018-Jun-09 04:31N 30°11' W 093°19'0 0.0
2018-Jun-09 04:00N 30°11' W 093°19'0 0.0
2018-Jun-09 03:31N 30°11' W 093°19'0 0.0
2018-Jun-09 03:01N 30°11' W 093°19'0 0.0
2018-Jun-09 02:31N 30°11' W 093°19'0 0.0
2018-Jun-09 02:01N 30°11' W 093°19'0 0.0
2018-Jun-09 01:31N 30°11' W 093°19'0 0.0
2018-Jun-09 01:00N 30°11' W 093°19'1 2.8
2018-Jun-09 00:30N 30°12' W 093°18'0 0.7
2018-Jun-09 00:01N 30°11' W 093°18'2 4.4
2018-Jun-08 23:31N 30°10' W 093°19'2 3.2
2018-Jun-08 23:00N 30°08' W 093°20'1 2.0
2018-Jun-08 22:31N 30°09' W 093°20'2 4.0
2018-Jun-08 22:01N 30°11' W 093°19'0 0.0
2018-Jun-08 21:31N 30°11' W 093°19'0 0.0
2018-Jun-08 21:01N 30°11' W 093°19'0 0.0
2018-Jun-08 20:31N 30°11' W 093°19'0 0.0
2018-Jun-08 20:01N 30°11' W 093°19'0 0.0
2018-Jun-08 19:29N 30°11' W 093°19'0 0.0
2018-Jun-08 19:00N 30°11' W 093°19'0 0.0
2018-Jun-08 18:29N 30°11' W 093°19'0 0.0
2018-Jun-08 18:00N 30°11' W 093°19'0 0.0
2018-Jun-08 17:31N 30°11' W 093°19'0 0.0
2018-Jun-08 17:01N 30°11' W 093°19'2 4.5
2018-Jun-08 16:31N 30°09' W 093°20'0 0.0
2018-Jun-08 16:00N 30°09' W 093°20'1 1.5
2018-Jun-08 15:30N 30°08' W 093°20'0 0.6
2018-Jun-08 15:00N 30°08' W 093°20'3 5.2
2018-Jun-08 14:31N 30°11' W 093°19'0 0.0
2018-Jun-08 13:59N 30°11' W 093°19'0 0.0
2018-Jun-08 13:30N 30°11' W 093°19'0 0.0
2018-Jun-08 13:00N 30°11' W 093°19'0 0.0
2018-Jun-08 12:31N 30°11' W 093°19'0 0.0
2018-Jun-08 12:00N 30°11' W 093°19'0 0.0
2018-Jun-08 11:30N 30°11' W 093°19'0 0.0
2018-Jun-08 11:01N 30°11' W 093°19'0 0.0
2018-Jun-08 10:30N 30°11' W 093°19'0 0.0
2018-Jun-08 10:01N 30°11' W 093°19'0 0.0
2018-Jun-08 09:30N 30°11' W 093°19'0 0.0
2018-Jun-08 09:00N 30°11' W 093°19'0 0.0
2018-Jun-08 08:30N 30°11' W 093°19'0 0.0
2018-Jun-08 08:01N 30°11' W 093°19'0 0.0
2018-Jun-08 07:31N 30°11' W 093°19'1 2.1
2018-Jun-08 07:00N 30°10' W 093°19'1 2.1
2018-Jun-08 06:31N 30°11' W 093°19'0 0.0
2018-Jun-08 06:01N 30°11' W 093°19'0 0.0
2018-Jun-08 05:30N 30°11' W 093°19'0 0.0
2018-Jun-08 05:01N 30°11' W 093°19'0 0.0
2018-Jun-08 04:30N 30°11' W 093°19'0 0.0
2018-Jun-08 04:00N 30°11' W 093°19'0 0.0
2018-Jun-08 03:30N 30°11' W 093°19'0 0.0
2018-Jun-08 03:01N 30°11' W 093°19'0 0.0
2018-Jun-08 02:31N 30°11' W 093°19'0 0.0
2018-Jun-08 02:00N 30°11' W 093°19'0 0.0
2018-Jun-08 01:30N 30°11' W 093°19'0 0.0
2018-Jun-08 01:00N 30°11' W 093°19'0 0.0
2018-Jun-08 00:30N 30°11' W 093°19'0 0.0
2018-Jun-08 00:00N 30°11' W 093°19'0 0.0
2018-Jun-07 23:30N 30°11' W 093°19'0 0.0
2018-Jun-07 23:00N 30°11' W 093°19'0 0.0
2018-Jun-07 22:30N 30°11' W 093°19'0 0.0
2018-Jun-07 22:00N 30°11' W 093°19'0 0.0
2018-Jun-07 21:30N 30°11' W 093°19'0 0.0
2018-Jun-07 21:00N 30°11' W 093°19'0 0.0
2018-Jun-07 20:31N 30°11' W 093°19'1 2.7
2018-Jun-07 20:00N 30°09' W 093°20'1 2.5
2018-Jun-07 19:31N 30°11' W 093°19'1 1.1
2018-Jun-07 19:01N 30°11' W 093°18'1 1.6
2018-Jun-07 18:31N 30°11' W 093°18'2 4.5
2018-Jun-07 18:01N 30°13' W 093°17'0 0.5
2018-Jun-07 17:30N 30°13' W 093°17'2 3.7
2018-Jun-07 17:01N 30°12' W 093°18'2 4.6
2018-Jun-07 16:30N 30°10' W 093°19'2 3.5
2018-Jun-07 16:01N 30°08' W 093°20'2 4.3
2018-Jun-07 15:31N 30°10' W 093°19'1 1.4
2018-Jun-07 15:01N 30°11' W 093°19'0 0.0
2018-Jun-07 14:29N 30°11' W 093°19'0 0.0
2018-Jun-07 14:01N 30°11' W 093°19'0 0.0
2018-Jun-07 13:31N 30°11' W 093°19'0 0.0
2018-Jun-07 13:01N 30°11' W 093°19'0 0.0
2018-Jun-07 12:31N 30°11' W 093°19'0 0.2
2018-Jun-07 12:01N 30°11' W 093°19'0 0.1
2018-Jun-07 11:31N 30°11' W 093°19'1 1.1
2018-Jun-07 11:01N 30°11' W 093°18'1 2.7
2018-Jun-07 10:31N 30°12' W 093°17'2 3.8
2018-Jun-07 10:00N 30°13' W 093°15'0 0.0
2018-Jun-07 09:28N 30°13' W 093°15'0 0.0
2018-Jun-07 09:01N 30°13' W 093°15'0 0.0
2018-Jun-07 08:30N 30°13' W 093°15'0 0.0
2018-Jun-07 08:01N 30°13' W 093°15'0 0.0
2018-Jun-07 07:31N 30°13' W 093°15'0 0.0
2018-Jun-07 07:00N 30°13' W 093°15'0 0.0
2018-Jun-07 06:30N 30°13' W 093°15'0 0.0
2018-Jun-07 06:00N 30°13' W 093°15'0 0.0
2018-Jun-07 05:31N 30°13' W 093°15'0 0.0
2018-Jun-07 05:00N 30°13' W 093°15'0 0.0
2018-Jun-07 04:30N 30°13' W 093°15'0 0.0
2018-Jun-07 04:00N 30°13' W 093°15'0 0.0
2018-Jun-07 03:29N 30°13' W 093°15'0 0.0
2018-Jun-07 03:00N 30°13' W 093°15'0 0.0
2018-Jun-07 02:30N 30°13' W 093°15'0 0.0
2018-Jun-07 02:00N 30°13' W 093°15'0 0.0
2018-Jun-07 01:31N 30°13' W 093°15'0 0.0
2018-Jun-07 01:00N 30°13' W 093°15'0 0.0
2018-Jun-07 00:30N 30°13' W 093°15'1 2.0
2018-Jun-07 00:01N 30°12' W 093°16'5 3.2
2018-Jun-06 22:22N 30°08' W 093°20'1 4.1
2018-Jun-06 22:01N 30°10' W 093°20'1 2.7
2018-Jun-06 21:31N 30°11' W 093°19'0 0.0
2018-Jun-06 20:59N 30°11' W 093°19'0 0.0
2018-Jun-06 20:31N 30°11' W 093°19'0 0.0
2018-Jun-06 20:01N 30°11' W 093°19'0 0.0
2018-Jun-06 19:30N 30°11' W 093°19'0 0.0
2018-Jun-06 19:01N 30°11' W 093°19'0 0.0
2018-Jun-06 18:30N 30°11' W 093°19'  
Track history (hours):
 
Tides and Currents Weather Stations Pressure Air Temp Water Temp Dewpoint Dewpoint Depression Visibility Wind Speed Wind Dir Waves Ship Positions

Pat

Owner: HARBOR DOCKING & TOWING CO. LLC, Houston, TX. More information available from US FCC via Universal Licensing System and Coast Guard Vessel Documentation Center.

Last reported at 2018-Jun-16 18:04 UTC. Time now 2018-Jun-21 10:02 UTC.
Position N 29°50' W 093°21'.

Length 32 m; draft 4 m.

Type: Towing. MMSI: 367581090.

Date/timePositionNaut miles runAvg speedWind from/ knotsBaromVisibWave heightAir tempDewpointWater temp
2018-Jun-16 18:04N 29°50' W 093°21'0 8.3
2018-Jun-16 18:00N 29°50' W 093°21'4 8.3
2018-Jun-16 17:30N 29°55' W 093°20'4 8.4
2018-Jun-16 17:00N 29°59' W 093°20'4 8.4
2018-Jun-16 16:30N 30°03' W 093°20'4 8.4
2018-Jun-16 16:00N 30°07' W 093°20'4 7.3
2018-Jun-16 15:30N 30°11' W 093°19'0 0.3
2018-Jun-16 15:00N 30°11' W 093°19'0 0.0
2018-Jun-16 14:30N 30°11' W 093°19'0 0.0
2018-Jun-16 14:00N 30°11' W 093°19'1 2.5
2018-Jun-16 13:30N 30°09' W 093°20'2 4.4
2018-Jun-16 13:00N 30°07' W 093°20'3 5.3
2018-Jun-16 12:30N 30°05' W 093°20'1 1.1
2018-Jun-16 12:00N 30°05' W 093°20'4 8.1
2018-Jun-16 11:30N 30°09' W 093°20'2 3.5
2018-Jun-16 11:00N 30°11' W 093°19'0 0.0
2018-Jun-16 10:30N 30°11' W 093°19'0 0.0
2018-Jun-16 10:00N 30°11' W 093°19'0 0.0
2018-Jun-16 09:30N 30°11' W 093°19'0 0.0
2018-Jun-16 09:00N 30°11' W 093°19'0 0.0
2018-Jun-16 08:30N 30°11' W 093°19'0 0.0
2018-Jun-16 08:00N 30°11' W 093°19'0 0.0
2018-Jun-16 07:30N 30°11' W 093°19'0 0.0
2018-Jun-16 07:00N 30°11' W 093°19'0 0.0
2018-Jun-16 06:30N 30°11' W 093°19'0 0.0
2018-Jun-16 06:00N 30°11' W 093°19'0 0.0
2018-Jun-16 05:28N 30°11' W 093°19'0 0.0
2018-Jun-16 04:59N 30°11' W 093°19'0 0.0
2018-Jun-16 04:30N 30°11' W 093°19'0 0.0
2018-Jun-16 04:00N 30°11' W 093°19'0 0.0
2018-Jun-16 03:30N 30°11' W 093°19'0 0.4
2018-Jun-16 03:00N 30°11' W 093°19'0 0.1
2018-Jun-16 02:30N 30°11' W 093°19'1 1.3
2018-Jun-16 02:00N 30°11' W 093°19'0 1.0
2018-Jun-16 01:30N 30°11' W 093°19'0 0.1
2018-Jun-16 01:00N 30°11' W 093°19'0 0.0
2018-Jun-16 00:30N 30°11' W 093°19'0 0.0
2018-Jun-16 00:00N 30°11' W 093°19'1 1.8
2018-Jun-15 23:30N 30°10' W 093°19'2 3.5
2018-Jun-15 23:00N 30°11' W 093°18'1 2.0
2018-Jun-15 22:30N 30°11' W 093°19'0 0.0
2018-Jun-15 22:00N 30°11' W 093°19'0 0.0
2018-Jun-15 21:30N 30°11' W 093°19'0 0.0
2018-Jun-15 21:00N 30°11' W 093°19'0 0.0
2018-Jun-15 20:30N 30°11' W 093°19'0 0.0
2018-Jun-15 20:00N 30°11' W 093°19'0 0.0
2018-Jun-15 19:29N 30°11' W 093°19'0 0.0
2018-Jun-15 19:00N 30°11' W 093°19'0 0.0
2018-Jun-15 18:30N 30°11' W 093°19'0 0.0
2018-Jun-15 18:00N 30°11' W 093°19'0 0.0
2018-Jun-15 17:30N 30°11' W 093°19'0 0.0
2018-Jun-15 17:00N 30°11' W 093°19'0 0.0
2018-Jun-15 16:30N 30°11' W 093°19'0 0.0
2018-Jun-15 16:00N 30°11' W 093°19'0 0.0
2018-Jun-15 15:30N 30°11' W 093°19'0 0.0
2018-Jun-15 15:00N 30°11' W 093°19'0 0.0
2018-Jun-15 14:30N 30°11' W 093°19'0 0.0
2018-Jun-15 14:00N 30°11' W 093°19'0 0.0
2018-Jun-15 13:30N 30°11' W 093°19'0 0.0
2018-Jun-15 13:00N 30°11' W 093°19'0 0.0
2018-Jun-15 12:30N 30°11' W 093°19'0 0.0
2018-Jun-15 12:00N 30°11' W 093°19'0 0.0
2018-Jun-15 11:30N 30°11' W 093°19'0 0.0
2018-Jun-15 11:00N 30°11' W 093°19'0 0.0
2018-Jun-15 10:30N 30°11' W 093°19'0 0.0
2018-Jun-15 10:00N 30°11' W 093°19'0 0.0
2018-Jun-15 09:30N 30°11' W 093°19'0 0.0
2018-Jun-15 09:00N 30°11' W 093°19'0 0.0
2018-Jun-15 08:30N 30°11' W 093°19'0 0.0
2018-Jun-15 08:00N 30°11' W 093°19'0 0.0
2018-Jun-15 07:30N 30°11' W 093°19'0 0.0
2018-Jun-15 07:00N 30°11' W 093°19'0 0.0
2018-Jun-15 06:29N 30°11' W 093°19'0 0.0
2018-Jun-15 06:00N 30°11' W 093°19'0 0.0
2018-Jun-15 05:30N 30°11' W 093°19'0 0.0
2018-Jun-15 05:00N 30°11' W 093°19'0 0.0
2018-Jun-15 04:30N 30°11' W 093°19'0 0.0
2018-Jun-15 04:00N 30°11' W 093°19'0 0.0
2018-Jun-15 03:30N 30°11' W 093°19'0 0.0
2018-Jun-15 03:00N 30°11' W 093°19'0 0.0
2018-Jun-15 02:30N 30°11' W 093°19'0 0.0
2018-Jun-15 01:58N 30°11' W 093°19'0 0.0
2018-Jun-15 01:30N 30°11' W 093°19'0 0.0
2018-Jun-15 01:00N 30°11' W 093°19'0 0.0
2018-Jun-15 00:30N 30°11' W 093°19'0 0.0
2018-Jun-15 00:00N 30°11' W 093°19'0 0.0
2018-Jun-14 23:30N 30°11' W 093°19'0 0.0
2018-Jun-14 23:00N 30°11' W 093°19'0 0.0
2018-Jun-14 22:30N 30°11' W 093°19'0 0.0
2018-Jun-14 21:58N 30°11' W 093°19'0 0.0
2018-Jun-14 21:30N 30°11' W 093°19'0 0.0
2018-Jun-14 21:00N 30°11' W 093°19'0 0.0
2018-Jun-14 20:30N 30°11' W 093°19'0 0.0
2018-Jun-14 20:00N 30°11' W 093°19'0 0.0
2018-Jun-14 19:30N 30°11' W 093°19'0 0.0
2018-Jun-14 19:00N 30°11' W 093°19'0 0.0
2018-Jun-14 18:30N 30°11' W 093°19'1 2.5
2018-Jun-14 18:00N 30°10' W 093°20'0 0.0
2018-Jun-14 17:30N 30°10' W 093°20'1 1.1
2018-Jun-14 17:00N 30°09' W 093°20'2 4.9
2018-Jun-14 16:30N 30°07' W 093°20'3 5.6
2018-Jun-14 16:00N 30°04' W 093°20'1 2.1
2018-Jun-14 15:30N 30°05' W 093°20'4 8.6
2018-Jun-14 15:00N 30°09' W 093°20'2 3.0
2018-Jun-14 14:29N 30°11' W 093°19'0 0.0
2018-Jun-14 14:00N 30°11' W 093°19'0 0.0
2018-Jun-14 13:30N 30°11' W 093°19'0 0.0
2018-Jun-14 13:00N 30°11' W 093°19'0 0.0
2018-Jun-14 12:30N 30°11' W 093°19'0 0.6
2018-Jun-14 12:00N 30°10' W 093°19'0 0.0
2018-Jun-14 11:30N 30°10' W 093°19'1 1.4
2018-Jun-14 11:00N 30°11' W 093°18'2 3.2
2018-Jun-14 10:30N 30°10' W 093°19'1 2.4
2018-Jun-14 10:00N 30°11' W 093°19'0 0.0
2018-Jun-14 09:30N 30°11' W 093°19'0 0.0
2018-Jun-14 09:00N 30°11' W 093°19'0 0.0
2018-Jun-14 08:30N 30°11' W 093°19'0 0.0
2018-Jun-14 08:00N 30°11' W 093°19'0 0.0
2018-Jun-14 07:29N 30°11' W 093°19'0 0.0
2018-Jun-14 07:00N 30°11' W 093°19'0 0.0
2018-Jun-14 06:30N 30°11' W 093°19'0 0.0
2018-Jun-14 06:00N 30°11' W 093°19'0 0.0
2018-Jun-14 05:30N 30°11' W 093°19'0 0.0
2018-Jun-14 05:00N 30°11' W 093°19'0 0.0
2018-Jun-14 04:30N 30°11' W 093°19'0 0.0
2018-Jun-14 04:00N 30°11' W 093°19'3 6.2
2018-Jun-14 03:30N 30°08' W 093°20'0 0.7
2018-Jun-14 03:00N 30°07' W 093°20'2 4.7
2018-Jun-14 02:30N 30°10' W 093°19'2 4.0
2018-Jun-14 02:00N 30°11' W 093°18'0 0.5
2018-Jun-14 01:30N 30°12' W 093°18'2 3.9
2018-Jun-14 01:00N 30°10' W 093°19'1 1.0
2018-Jun-14 00:30N 30°11' W 093°19'2 4.8
2018-Jun-14 00:00N 30°12' W 093°17'1 2.4
2018-Jun-13 23:30N 30°13' W 093°16'1 2.1
2018-Jun-13 23:00N 30°14' W 093°15'1 1.0
2018-Jun-13 22:30N 30°13' W 093°16'4 7.6
2018-Jun-13 22:00N 30°11' W 093°19'0 0.3
2018-Jun-13 21:30N 30°11' W 093°19'0 0.0
2018-Jun-13 21:00N 30°11' W 093°19'0 0.0
2018-Jun-13 20:30N 30°11' W 093°19'0 0.0
2018-Jun-13 20:00N 30°11' W 093°19'0 0.0
2018-Jun-13 19:30N 30°11' W 093°19'0 0.0
2018-Jun-13 19:00N 30°11' W 093°19'0 0.0
2018-Jun-13 18:30N 30°11' W 093°19'0 0.0
2018-Jun-13 18:00N 30°11' W 093°19'0 0.0
2018-Jun-13 17:29N 30°11' W 093°19'0 0.0
2018-Jun-13 16:59N 30°11' W 093°19'0 0.0
2018-Jun-13 16:30N 30°11' W 093°19'0 0.0
2018-Jun-13 16:00N 30°11' W 093°19'0 0.0
2018-Jun-13 15:29N 30°11' W 093°19'0 0.0
2018-Jun-13 15:00N 30°11' W 093°19'0 0.0
2018-Jun-13 14:30N 30°11' W 093°19'0 0.0
2018-Jun-13 14:00N 30°11' W 093°19'0 0.0
2018-Jun-13 13:30N 30°11' W 093°19'0 0.0
2018-Jun-13 13:00N 30°11' W 093°19'0 0.0
2018-Jun-13 12:30N 30°11' W 093°19'0 0.0
2018-Jun-13 12:00N 30°11' W 093°19'0 0.0
2018-Jun-13 11:30N 30°11' W 093°19'0 0.0
2018-Jun-13 11:00N 30°11' W 093°19'0 0.0
2018-Jun-13 10:30N 30°11' W 093°19'0 0.0
2018-Jun-13 10:00N 30°11' W 093°19'0 0.0
2018-Jun-13 09:30N 30°11' W 093°19'0 0.0
2018-Jun-13 09:00N 30°11' W 093°19'0 0.0
2018-Jun-13 08:30N 30°11' W 093°19'0 0.0
2018-Jun-13 08:00N 30°11' W 093°19'0 0.0
2018-Jun-13 07:30N 30°11' W 093°19'0 0.0
2018-Jun-13 07:00N 30°11' W 093°19'0 0.0
2018-Jun-13 06:30N 30°11' W 093°19'0 0.0
2018-Jun-13 06:00N 30°11' W 093°19'0 0.0
2018-Jun-13 05:30N 30°11' W 093°19'0 0.0
2018-Jun-13 05:00N 30°11' W 093°19'0 0.0
2018-Jun-13 04:29N 30°11' W 093°19'0 0.0
2018-Jun-13 03:59N 30°11' W 093°19'0 0.0
2018-Jun-13 03:30N 30°11' W 093°19'0 0.0
2018-Jun-13 03:00N 30°11' W 093°19'0 0.0
2018-Jun-13 02:30N 30°11' W 093°19'0 0.0
2018-Jun-13 02:00N 30°11' W 093°19'0 0.0
2018-Jun-13 01:30N 30°11' W 093°19'0 0.0
2018-Jun-13 00:59N 30°11' W 093°19'0 0.0
2018-Jun-13 00:30N 30°11' W 093°19'0 0.0
2018-Jun-13 00:00N 30°11' W 093°19'3 0.3
2018-Jun-12 12:35N 30°08' W 093°20'0 4.2
2018-Jun-12 12:30N 30°08' W 093°20'2 4.6
2018-Jun-12 12:01N 30°10' W 093°19'0 0.7
2018-Jun-12 11:31N 30°11' W 093°19'0 0.0
2018-Jun-12 11:00N 30°11' W 093°19'0 0.0
2018-Jun-12 10:30N 30°11' W 093°19'0 0.0
2018-Jun-12 10:00N 30°11' W 093°19'0 0.0
2018-Jun-12 09:30N 30°11' W 093°19'2 4.0
2018-Jun-12 09:01N 30°09' W 093°20'0 0.7
2018-Jun-12 08:31N 30°09' W 093°20'0 0.4
2018-Jun-12 08:01N 30°09' W 093°20'2 3.3
2018-Jun-12 07:31N 30°11' W 093°19'3 6.5
2018-Jun-12 06:59N 30°13' W 093°15'0 0.0
2018-Jun-12 06:30N 30°13' W 093°15'0 0.0
2018-Jun-12 06:01N 30°13' W 093°15'0 0.0
2018-Jun-12 05:31N 30°13' W 093°15'0 0.0
2018-Jun-12 05:00N 30°13' W 093°15'0 0.0
2018-Jun-12 04:29N 30°13' W 093°15'0 0.0
2018-Jun-12 04:00N 30°13' W 093°15'0 0.0
2018-Jun-12 03:30N 30°13' W 093°15'0 0.0
2018-Jun-12 03:01N 30°13' W 093°15'0 0.0
2018-Jun-12 02:30N 30°13' W 093°15'0 0.0
2018-Jun-12 02:00N 30°13' W 093°15'0 0.0
2018-Jun-12 01:31N 30°13' W 093°15'0 0.0
2018-Jun-12 01:00N 30°13' W 093°15'0 0.0
2018-Jun-12 00:31N 30°13' W 093°15'0 0.0
2018-Jun-12 00:00N 30°13' W 093°15'0 0.0
2018-Jun-11 23:30N 30°13' W 093°15'0 0.0
2018-Jun-11 23:01N 30°13' W 093°15'0 0.0
2018-Jun-11 22:30N 30°13' W 093°15'2 3.8
2018-Jun-11 22:00N 30°12' W 093°17'3 5.8
2018-Jun-11 21:30N 30°10' W 093°20'1 2.6
2018-Jun-11 21:01N 30°11' W 093°19'0 0.0
2018-Jun-11 20:31N 30°11' W 093°19'0 0.0
2018-Jun-11 20:00N 30°11' W 093°19'0 0.0
2018-Jun-11 19:31N 30°11' W 093°19'0 0.0
2018-Jun-11 19:01N 30°11' W 093°19'0 0.0
2018-Jun-11 18:31N 30°11' W 093°19'0 0.0
2018-Jun-11 18:00N 30°11' W 093°19'0 0.0
2018-Jun-11 17:29N 30°11' W 093°19'0 0.0
2018-Jun-11 17:00N 30°11' W 093°19'0 0.0
2018-Jun-11 16:30N 30°11' W 093°19'0 0.0
2018-Jun-11 16:01N 30°11' W 093°19'0 0.0
2018-Jun-11 15:31N 30°11' W 093°19'0 0.0
2018-Jun-11 15:00N 30°11' W 093°19'0 0.0
2018-Jun-11 14:30N 30°11' W 093°19'0 0.0
2018-Jun-11 14:00N 30°11' W 093°19'1 1.5
2018-Jun-11 13:30N 30°10' W 093°19'1 2.2
2018-Jun-11 13:01N 30°11' W 093°19'0 0.9
2018-Jun-11 12:30N 30°11' W 093°19'0 0.0
2018-Jun-11 12:01N 30°11' W 093°19'0 0.0
2018-Jun-11 11:30N 30°11' W 093°19'0 0.0
2018-Jun-11 11:00N 30°11' W 093°19'0 0.0
2018-Jun-11 10:31N 30°11' W 093°19'0 0.0
2018-Jun-11 10:01N 30°11' W 093°19'1 3.0
2018-Jun-11 09:30N 30°09' W 093°20'0 0.0
2018-Jun-11 09:01N 30°09' W 093°20'1 1.0
2018-Jun-11 08:31N 30°09' W 093°20'3 5.4
2018-Jun-11 08:00N 30°06' W 093°20'3 5.7
2018-Jun-11 07:31N 30°03' W 093°20'2 4.9
2018-Jun-11 07:01N 30°06' W 093°20'4 7.2
2018-Jun-11 06:31N 30°09' W 093°20'1 2.9
2018-Jun-11 06:00N 30°11' W 093°19'0 0.0
2018-Jun-11 05:31N 30°11' W 093°19'0 0.0
2018-Jun-11 05:00N 30°11' W 093°19'0 0.0
2018-Jun-11 04:31N 30°11' W 093°19'0 0.0
2018-Jun-11 04:01N 30°11' W 093°19'0 0.0
2018-Jun-11 03:31N 30°11' W 093°19'0 0.0
2018-Jun-11 03:01N 30°11' W 093°19'0 0.0
2018-Jun-11 02:31N 30°11' W 093°19'0 0.0
2018-Jun-11 02:01N 30°11' W 093°19'0 0.0
2018-Jun-11 01:30N 30°11' W 093°19'0 0.0
2018-Jun-11 01:00N 30°11' W 093°19'0 0.0
2018-Jun-11 00:30N 30°11' W 093°19'0 0.0
2018-Jun-11 00:01N 30°11' W 093°19'0 0.0
2018-Jun-10 23:31N 30°11' W 093°19'0 0.0
2018-Jun-10 23:01N 30°11' W 093°19'0 0.0
2018-Jun-10 22:30N 30°11' W 093°19'0 0.0
2018-Jun-10 21:57N 30°11' W 093°19'0 0.0
2018-Jun-10 21:31N 30°11' W 093°19'0 0.0
2018-Jun-10 21:00N 30°11' W 093°19'0 0.0
2018-Jun-10 20:31N 30°11' W 093°19'0 0.0
2018-Jun-10 20:00N 30°11' W 093°19'0 0.0
2018-Jun-10 19:30N 30°11' W 093°19'0 0.0
2018-Jun-10 19:01N 30°11' W 093°19'0 0.0
2018-Jun-10 18:30N 30°11' W 093°19'0 0.0
2018-Jun-10 18:00N 30°11' W 093°19'0 0.0
2018-Jun-10 17:31N 30°11' W 093°19'0 0.0
2018-Jun-10 17:01N 30°11' W 093°19'0 0.0
2018-Jun-10 16:31N 30°11' W 093°19'0 0.0
2018-Jun-10 16:01N 30°11' W 093°19'0 0.0
2018-Jun-10 15:31N 30°11' W 093°19'0 0.0
2018-Jun-10 15:01N 30°11' W 093°19'0 0.0
2018-Jun-10 14:01N 30°11' W 093°19'0 0.0
2018-Jun-10 13:29N 30°11' W 093°19'0 0.0
2018-Jun-10 13:01N 30°11' W 093°19'1 2.3
2018-Jun-10 12:31N 30°10' W 093°19'1 2.6
2018-Jun-10 11:59N 30°11' W 093°18'1 1.5
2018-Jun-10 11:30N 30°10' W 093°19'5 9.0
2018-Jun-10 11:00N 30°06' W 093°20'2 4.4
2018-Jun-10 10:31N 30°06' W 093°17'0 0.0
2018-Jun-10 10:01N 30°06' W 093°17'0 0.0
2018-Jun-10 09:31N 30°06' W 093°17'0 0.0
2018-Jun-10 09:00N 30°06' W 093°17'0 0.0
2018-Jun-10 08:31N 30°06' W 093°17'0 0.0
2018-Jun-10 08:00N 30°06' W 093°17'0 0.0
2018-Jun-10 07:29N 30°06' W 093°17'0 0.0
2018-Jun-10 07:01N 30°06' W 093°17'0 0.0
2018-Jun-10 06:30N 30°06' W 093°17'0 0.0
2018-Jun-10 06:01N 30°06' W 093°17'0 0.0
2018-Jun-10 05:30N 30°06' W 093°17'0 0.0
2018-Jun-10 05:01N 30°06' W 093°17'0 0.0
2018-Jun-10 04:30N 30°06' W 093°17'0 0.0
2018-Jun-10 04:01N 30°06' W 093°17'0 0.0
2018-Jun-10 03:31N 30°06' W 093°17'0 0.0
2018-Jun-10 03:01N 30°06' W 093°17'0 0.0
2018-Jun-10 02:31N 30°06' W 093°17'2 3.5
2018-Jun-10 02:01N 30°06' W 093°19'1 2.9
2018-Jun-10 01:30N 30°07' W 093°18'0 0.4
2018-Jun-10 01:00N 30°07' W 093°18'2 4.3
2018-Jun-10 00:30N 30°08' W 093°20'3 6.0
2018-Jun-10 00:01N 30°11' W 093°19'0 0.0
2018-Jun-09 23:31N 30°11' W 093°19'0 0.0
2018-Jun-09 23:00N 30°11' W 093°19'0 0.0
2018-Jun-09 22:30N 30°11' W 093°19'2 4.4
2018-Jun-09 22:00N 30°09' W 093°20'1 1.3
2018-Jun-09 21:30N 30°09' W 093°20'2 3.1
2018-Jun-09 21:00N 30°11' W 093°19'0 0.0
2018-Jun-09 20:30N 30°11' W 093°19'0 0.0
2018-Jun-09 20:00N 30°11' W 093°19'0 0.0
2018-Jun-09 19:30N 30°11' W 093°19'0 0.0
2018-Jun-09 19:00N 30°11' W 093°19'0 0.0
2018-Jun-09 18:31N 30°11' W 093°19'0 0.0
2018-Jun-09 18:00N 30°11' W 093°19'0 0.0
2018-Jun-09 17:31N 30°11' W 093°19'0 0.0
2018-Jun-09 16:59N 30°11' W 093°19'0 0.0
2018-Jun-09 16:30N 30°11' W 093°19'0 0.0
2018-Jun-09 16:01N 30°11' W 093°19'0 0.0
2018-Jun-09 15:01N 30°11' W 093°19'0 0.0
2018-Jun-09 14:30N 30°11' W 093°19'0 0.0
2018-Jun-09 14:00N 30°11' W 093°19'0 0.0
2018-Jun-09 13:31N 30°11' W 093°19'0 0.0
2018-Jun-09 13:00N 30°11' W 093°19'0 0.0
2018-Jun-09 12:30N 30°11' W 093°19'0 0.0
2018-Jun-09 12:01N 30°11' W 093°19'0 0.0
2018-Jun-09 11:30N 30°11' W 093°19'0 0.0
2018-Jun-09 11:01N 30°11' W 093°19'0 0.7
2018-Jun-09 10:30N 30°11' W 093°19'0 0.0
2018-Jun-09 10:00N 30°11' W 093°19'1 1.8
2018-Jun-09 09:31N 30°10' W 093°19'1 1.2
2018-Jun-09 09:00N 30°11' W 093°19'0 0.0
2018-Jun-09 08:28N 30°11' W 093°19'0 0.0
2018-Jun-09 08:01N 30°11' W 093°19'0 0.0
2018-Jun-09 07:31N 30°11' W 093°19'0 0.0
2018-Jun-09 07:01N 30°11' W 093°19'0 0.0
2018-Jun-09 06:30N 30°11' W 093°19'0 0.0
2018-Jun-09 06:00N 30°11' W 093°19'0 0.0
2018-Jun-09 05:31N 30°11' W 093°19'0 0.0
2018-Jun-09 05:00N 30°11' W 093°19'0 0.0
2018-Jun-09 04:31N 30°11' W 093°19'0 0.0
2018-Jun-09 04:00N 30°11' W 093°19'0 0.0
2018-Jun-09 03:31N 30°11' W 093°19'0 0.0
2018-Jun-09 03:01N 30°11' W 093°19'0 0.0
2018-Jun-09 02:31N 30°11' W 093°19'0 0.0
2018-Jun-09 02:01N 30°11' W 093°19'0 0.0
2018-Jun-09 01:31N 30°11' W 093°19'0 0.0
2018-Jun-09 01:00N 30°11' W 093°19'1 2.8
2018-Jun-09 00:30N 30°12' W 093°18'0 0.7
2018-Jun-09 00:01N 30°11' W 093°18'2 4.4
2018-Jun-08 23:31N 30°10' W 093°19'2 3.2
2018-Jun-08 23:00N 30°08' W 093°20'1 2.0
2018-Jun-08 22:31N 30°09' W 093°20'2 4.0
2018-Jun-08 22:01N 30°11' W 093°19'0 0.0
2018-Jun-08 21:31N 30°11' W 093°19'0 0.0
2018-Jun-08 21:01N 30°11' W 093°19'0 0.0
2018-Jun-08 20:31N 30°11' W 093°19'0 0.0
2018-Jun-08 20:01N 30°11' W 093°19'0 0.0
2018-Jun-08 19:29N 30°11' W 093°19'0 0.0
2018-Jun-08 19:00N 30°11' W 093°19'0 0.0
2018-Jun-08 18:29N 30°11' W 093°19'0 0.0
2018-Jun-08 18:00N 30°11' W 093°19'0 0.0
2018-Jun-08 17:31N 30°11' W 093°19'0 0.0
2018-Jun-08 17:01N 30°11' W 093°19'2 4.5
2018-Jun-08 16:31N 30°09' W 093°20'0 0.0
2018-Jun-08 16:00N 30°09' W 093°20'1 1.5
2018-Jun-08 15:30N 30°08' W 093°20'0 0.6
2018-Jun-08 15:00N 30°08' W 093°20'3 5.2
2018-Jun-08 14:31N 30°11' W 093°19'0 0.0
2018-Jun-08 13:59N 30°11' W 093°19'0 0.0
2018-Jun-08 13:30N 30°11' W 093°19'0 0.0
2018-Jun-08 13:00N 30°11' W 093°19'0 0.0
2018-Jun-08 12:31N 30°11' W 093°19'0 0.0
2018-Jun-08 12:00N 30°11' W 093°19'0 0.0
2018-Jun-08 11:30N 30°11' W 093°19'0 0.0
2018-Jun-08 11:01N 30°11' W 093°19'0 0.0
2018-Jun-08 10:30N 30°11' W 093°19'0 0.0
2018-Jun-08 10:01N 30°11' W 093°19'0 0.0
2018-Jun-08 09:30N 30°11' W 093°19'0 0.0
2018-Jun-08 09:00N 30°11' W 093°19'0 0.0
2018-Jun-08 08:30N 30°11' W 093°19'0 0.0
2018-Jun-08 08:01N 30°11' W 093°19'0 0.0
2018-Jun-08 07:31N 30°11' W 093°19'1 2.1
2018-Jun-08 07:00N 30°10' W 093°19'1 2.1
2018-Jun-08 06:31N 30°11' W 093°19'0 0.0
2018-Jun-08 06:01N 30°11' W 093°19'0 0.0
2018-Jun-08 05:30N 30°11' W 093°19'0 0.0
2018-Jun-08 05:01N 30°11' W 093°19'0 0.0
2018-Jun-08 04:30N 30°11' W 093°19'0 0.0
2018-Jun-08 04:00N 30°11' W 093°19'0 0.0
2018-Jun-08 03:30N 30°11' W 093°19'0 0.0
2018-Jun-08 03:01N 30°11' W 093°19'0 0.0
2018-Jun-08 02:31N 30°11' W 093°19'0 0.0
2018-Jun-08 02:00N 30°11' W 093°19'0 0.0
2018-Jun-08 01:30N 30°11' W 093°19'0 0.0
2018-Jun-08 01:00N 30°11' W 093°19'0 0.0
2018-Jun-08 00:30N 30°11' W 093°19'0 0.0
2018-Jun-08 00:00N 30°11' W 093°19'0 0.0
2018-Jun-07 23:30N 30°11' W 093°19'0 0.0
2018-Jun-07 23:00N 30°11' W 093°19'0 0.0
2018-Jun-07 22:30N 30°11' W 093°19'0 0.0
2018-Jun-07 22:00N 30°11' W 093°19'0 0.0
2018-Jun-07 21:30N 30°11' W 093°19'0 0.0
2018-Jun-07 21:00N 30°11' W 093°19'0 0.0
2018-Jun-07 20:31N 30°11' W 093°19'1 2.7
2018-Jun-07 20:00N 30°09' W 093°20'1 2.5
2018-Jun-07 19:31N 30°11' W 093°19'1 1.1
2018-Jun-07 19:01N 30°11' W 093°18'1 1.6
2018-Jun-07 18:31N 30°11' W 093°18'2 4.5
2018-Jun-07 18:01N 30°13' W 093°17'0 0.5
2018-Jun-07 17:30N 30°13' W 093°17'2 3.7
2018-Jun-07 17:01N 30°12' W 093°18'2 4.6
2018-Jun-07 16:30N 30°10' W 093°19'2 3.5
2018-Jun-07 16:01N 30°08' W 093°20'2 4.3
2018-Jun-07 15:31N 30°10' W 093°19'1 1.4
2018-Jun-07 15:01N 30°11' W 093°19'0 0.0
2018-Jun-07 14:29N 30°11' W 093°19'0 0.0
2018-Jun-07 14:01N 30°11' W 093°19'0 0.0
2018-Jun-07 13:31N 30°11' W 093°19'0 0.0
2018-Jun-07 13:01N 30°11' W 093°19'0 0.0
2018-Jun-07 12:31N 30°11' W 093°19'0 0.2
2018-Jun-07 12:01N 30°11' W 093°19'0 0.1
2018-Jun-07 11:31N 30°11' W 093°19'1 1.1
2018-Jun-07 11:01N 30°11' W 093°18'1 2.7
2018-Jun-07 10:31N 30°12' W 093°17'2 3.8
2018-Jun-07 10:00N 30°13' W 093°15'0 0.0
2018-Jun-07 09:28N 30°13' W 093°15'0 0.0
2018-Jun-07 09:01N 30°13' W 093°15'0 0.0
2018-Jun-07 08:30N 30°13' W 093°15'0 0.0
2018-Jun-07 08:01N 30°13' W 093°15'0 0.0
2018-Jun-07 07:31N 30°13' W 093°15'0 0.0
2018-Jun-07 07:00N 30°13' W 093°15'0 0.0
2018-Jun-07 06:30N 30°13' W 093°15'0 0.0
2018-Jun-07 06:00N 30°13' W 093°15'0 0.0
2018-Jun-07 05:31N 30°13' W 093°15'0 0.0
2018-Jun-07 05:00N 30°13' W 093°15'0 0.0
2018-Jun-07 04:30N 30°13' W 093°15'0 0.0
2018-Jun-07 04:00N 30°13' W 093°15'0 0.0
2018-Jun-07 03:29N 30°13' W 093°15'0 0.0
2018-Jun-07 03:00N 30°13' W 093°15'0 0.0
2018-Jun-07 02:30N 30°13' W 093°15'0 0.0
2018-Jun-07 02:00N 30°13' W 093°15'0 0.0
2018-Jun-07 01:31N 30°13' W 093°15'0 0.0
2018-Jun-07 01:00N 30°13' W 093°15'0 0.0
2018-Jun-07 00:30N 30°13' W 093°15'1 2.0
2018-Jun-07 00:01N 30°12' W 093°16'5 3.2
2018-Jun-06 22:22N 30°08' W 093°20'1 4.1
2018-Jun-06 22:01N 30°10' W 093°20'1 2.7
2018-Jun-06 21:31N 30°11' W 093°19'0 0.0
2018-Jun-06 20:59N 30°11' W 093°19'0 0.0
2018-Jun-06 20:31N 30°11' W 093°19'0 0.0
2018-Jun-06 20:01N 30°11' W 093°19'0 0.0
2018-Jun-06 19:30N 30°11' W 093°19'0 0.0
2018-Jun-06 19:01N 30°11' W 093°19'0 0.0
2018-Jun-06 18:30N 30°11' W 093°19'  

Dump ship's entire track history